Time;durP1;ratioP1;P1;durP2;ratioP2;P2;SDS_P1;SDS_P2;PMS_P1;PMS_P2;Temp;Humidity;BMP_temperature;BMP_pressure;BME280_temperature;BME280_humidity;BME280_pressure;Samples;Min_cycle;Max_cycle;Signal;HPM_P1;HPM_P2
2022/04/26 03:37:34;;;;;;;10.73;4.80;;;10.20;44.20;;;;;;4953561;29;20039;-93
2022/04/26 03:40:00;;;;;;;5.13;4.50;;;10.20;44.30;;;;;;4941976;29;20049;-90
2022/04/26 03:42:26;;;;;;;7.82;5.25;;;10.20;44.40;;;;;;4943861;28;20043;-89
2022/04/26 03:44:51;;;;;;;6.90;5.38;;;10.10;44.30;;;;;;4933136;29;20032;-89
2022/04/26 03:47:17;;;;;;;6.18;4.47;;;10.10;44.40;;;;;;4951597;28;20451;-89
2022/04/26 03:49:43;;;;;;;9.70;5.18;;;10.10;44.50;;;;;;4948933;28;20035;-88
2022/04/26 03:52:09;;;;;;;7.78;4.57;;;10.10;44.60;;;;;;4929926;29;20050;-88
2022/04/26 03:54:35;;;;;;;6.93;4.90;;;10.10;44.60;;;;;;4953653;28;20031;-90
2022/04/26 03:57:01;;;;;;;6.55;4.75;;;10.10;44.70;;;;;;4956394;28;20684;-94
2022/04/26 03:59:27;;;;;;;6.65;4.88;;;10.00;44.60;;;;;;4953902;29;20427;-96
2022/04/26 04:01:53;;;;;;;7.80;5.03;;;10.00;44.60;;;;;;4951170;29;20039;-96
2022/04/26 04:04:19;;;;;;;8.60;5.50;;;10.00;44.70;;;;;;4959807;29;20050;-92
2022/04/26 04:06:45;;;;;;;6.88;5.07;;;10.00;44.70;;;;;;4972551;28;20533;-94
2022/04/26 04:09:11;;;;;;;5.47;4.18;;;10.00;44.80;;;;;;4952195;29;20035;-91
2022/04/26 04:11:36;;;;;;;9.35;5.25;;;9.90;44.70;;;;;;4955568;28;20031;-92
2022/04/26 04:14:03;;;;;;;7.45;5.47;;;9.90;44.80;;;;;;4985895;28;20031;-95
2022/04/26 04:16:29;;;;;;;7.40;4.80;;;9.90;44.90;;;;;;4956926;28;20042;-90
2022/04/26 04:21:39;;;;;;;6.35;5.25;;;9.90;45.10;;;;;;4955134;28;20035;-93
2022/04/26 04:24:05;;;;;;;7.25;5.03;;;9.80;44.90;;;;;;4956060;28;20502;-92
2022/04/26 04:26:31;;;;;;;8.52;5.57;;;9.80;45.00;;;;;;4971525;28;20415;-89
2022/04/26 04:28:57;;;;;;;10.20;6.15;;;9.80;45.00;;;;;;4957119;28;20038;-94
2022/04/26 04:31:23;;;;;;;9.18;5.72;;;9.80;45.10;;;;;;4953393;28;20057;-92
2022/04/26 04:33:49;;;;;;;7.22;5.40;;;9.80;45.20;;;;;;4941215;29;20031;-93
2022/04/26 04:36:15;;;;;;;6.18;5.30;;;9.80;45.30;;;;;;4967900;28;20062;-90
2022/04/26 04:38:41;;;;;;;7.65;5.78;;;9.80;45.30;;;;;;4941426;28;20041;-93
2022/04/26 04:41:07;;;;;;;8.55;6.13;;;9.70;45.20;;;;;;4951913;29;20481;-91
2022/04/26 04:43:34;;;;;;;8.13;6.10;;;9.70;45.30;;;;;;4954788;29;20103;-92
2022/04/26 04:46:01;;;;;;;8.70;6.95;;;9.70;45.30;;;;;;4955684;29;20432;-93
2022/04/26 04:48:27;;;;;;;8.70;6.15;;;9.70;45.40;;;;;;4945818;28;20389;-93
2022/04/26 04:50:53;;;;;;;9.43;5.82;;;9.70;45.50;;;;;;4946270;28;20046;-91
2022/04/26 04:53:20;;;;;;;7.28;5.38;;;9.70;45.50;;;;;;4957375;28;20114;-92
2022/04/26 04:55:46;;;;;;;9.65;5.85;;;9.70;45.70;;;;;;4951099;29;20058;-91
2022/04/26 04:58:12;;;;;;;6.78;6.05;;;9.70;45.70;;;;;;4947878;28;20031;-89
2022/04/26 05:00:37;;;;;;;8.77;5.88;;;9.70;45.80;;;;;;4967314;28;20035;-91
2022/04/26 05:03:04;;;;;;;6.70;6.03;;;9.70;45.80;;;;;;4949764;28;20041;-93
2022/04/26 05:05:30;;;;;;;9.98;5.70;;;9.70;46.50;;;;;;4950199;29;20031;-92
2022/04/26 05:07:58;;;;;;;8.32;6.10;;;9.70;45.90;;;;;;4948922;28;20187;-94
2022/04/26 05:10:25;;;;;;;8.55;5.68;;;9.70;46.00;;;;;;4947291;29;20483;-93
2022/04/26 05:12:53;;;;;;;9.20;6.22;;;9.70;46.00;;;;;;4937072;29;20082;-93
2022/04/26 05:15:19;;;;;;;7.05;6.28;;;9.70;46.00;;;;;;4942662;29;20032;-91
2022/04/26 05:17:45;;;;;;;9.27;6.07;;;9.70;46.10;;;;;;4944528;28;20031;-91
2022/04/26 05:20:12;;;;;;;7.03;5.63;;;9.70;46.20;;;;;;4946926;29;20042;-86
2022/04/26 05:25:24;;;;;;;10.20;6.97;;;9.70;46.20;;;;;;4945216;28;20145;-94
2022/04/26 05:27:50;;;;;;;8.27;6.00;;;9.80;46.40;;;;;;4957553;28;20170;-87
2022/04/26 05:30:16;;;;;;;8.95;6.32;;;9.80;46.40;;;;;;4945700;28;20121;-88
2022/04/26 05:32:42;;;;;;;8.63;5.93;;;9.90;46.50;;;;;;4943099;28;20032;-88
2022/04/26 05:35:08;;;;;;;9.00;6.25;;;9.90;46.50;;;;;;4948519;28;20091;-93
2022/04/26 05:37:33;;;;;;;9.88;6.25;;;10.00;46.60;;;;;;4951634;28;20023;-89
2022/04/26 05:40:02;;;;;;;8.93;6.18;;;10.00;46.60;;;;;;4939101;29;20035;-91
2022/04/26 05:42:31;;;;;;;10.27;6.53;;;10.00;47.10;;;;;;4947867;29;20042;-96
2022/04/26 05:44:57;;;;;;;8.65;6.53;;;10.10;46.80;;;;;;4954021;29;20051;-90
2022/04/26 05:47:23;;;;;;;10.80;6.97;;;10.10;46.80;;;;;;4943628;28;20044;-90
2022/04/26 05:49:50;;;;;;;10.02;7.00;;;10.10;46.80;;;;;;4947087;28;20043;-86
2022/04/26 05:52:16;;;;;;;10.90;6.90;;;10.10;46.80;;;;;;4946793;29;20047;-89
2022/04/26 05:54:42;;;;;;;9.35;7.60;;;10.10;46.90;;;;;;4947597;28;20035;-86
2022/04/26 05:57:08;;;;;;;10.93;7.10;;;10.10;46.90;;;;;;4937962;29;20499;-91
2022/04/26 05:59:34;;;;;;;8.60;6.43;;;10.10;46.90;;;;;;4945752;28;20037;-83
2022/04/26 06:02:00;;;;;;;10.07;7.43;;;10.20;47.20;;;;;;4951894;28;20064;-82
2022/04/26 06:04:26;;;;;;;10.48;8.20;;;10.20;47.20;;;;;;4953150;28;20086;-86
2022/04/26 06:06:52;;;;;;;8.48;7.47;;;10.20;47.20;;;;;;4982398;28;20055;-87
2022/04/26 06:09:19;;;;;;;10.40;8.00;;;10.20;47.30;;;;;;4970282;28;20023;-86
2022/04/26 06:11:46;;;;;;;11.55;7.63;;;10.20;47.30;;;;;;4967677;28;20031;-83
2022/04/26 06:14:14;;;;;;;9.45;7.28;;;10.20;47.30;;;;;;4966380;28;20028;-85
2022/04/26 06:16:41;;;;;;;15.10;8.48;;;10.30;47.50;;;;;;4968347;28;20020;-84
2022/04/26 06:19:07;;;;;;;11.38;8.15;;;10.30;47.60;;;;;;4969224;28;20023;-83
2022/04/26 06:21:33;;;;;;;10.43;7.75;;;10.30;47.60;;;;;;4965417;29;20034;-83
2022/04/26 06:23:59;;;;;;;13.50;8.48;;;10.40;47.70;;;;;;4968619;28;20054;-81
2022/04/26 06:26:25;;;;;;;13.10;8.90;;;10.40;47.70;;;;;;4982803;28;20078;-81
2022/04/26 06:28:51;;;;;;;9.43;7.15;;;10.40;47.60;;;;;;4955785;28;20031;-88
2022/04/26 06:31:17;;;;;;;8.40;6.97;;;10.50;48.00;;;;;;4956109;28;20043;-79
2022/04/26 06:33:43;;;;;;;8.02;6.80;;;10.60;49.20;;;;;;4942214;28;20028;-81
2022/04/26 06:36:08;;;;;;;8.18;7.20;;;10.80;50.00;;;;;;4940599;29;20032;-82
2022/04/26 06:38:34;;;;;;;10.18;8.20;;;10.90;50.20;;;;;;4943218;28;20043;-90
2022/04/26 06:41:01;;;;;;;11.82;8.50;;;11.00;50.30;;;;;;4926670;29;20035;-88
2022/04/26 06:43:32;;;;;;;9.93;7.65;;;11.00;50.20;;;;;;4943584;29;20031;-87
2022/04/26 06:45:58;;;;;;;9.93;7.32;;;11.10;50.30;;;;;;4945711;29;20501;-88
2022/04/26 06:48:24;;;;;;;12.35;7.35;;;11.10;50.20;;;;;;4945516;28;20052;-87
2022/04/26 06:50:50;;;;;;;11.52;8.07;;;11.10;50.10;;;;;;4948329;28;20047;-83
2022/04/26 06:53:17;;;;;;;9.77;7.85;;;11.20;50.30;;;;;;4945209;28;20376;-83
2022/04/26 06:55:43;;;;;;;8.85;7.60;;;11.20;50.10;;;;;;4949776;28;20043;-84
2022/04/26 06:58:09;;;;;;;10.40;8.20;;;11.20;50.00;;;;;;4947667;28;20613;-88
2022/04/26 07:00:35;;;;;;;10.75;8.27;;;11.40;50.20;;;;;;4944732;29;20150;-88
2022/04/26 07:03:00;;;;;;;9.60;8.07;;;11.60;50.60;;;;;;4949787;28;20114;-87
2022/04/26 07:05:26;;;;;;;10.30;8.95;;;12.20;50.80;;;;;;4949223;28;20047;-88
2022/04/26 07:07:52;;;;;;;11.70;8.25;;;12.80;50.50;;;;;;4949828;28;20027;-89
2022/04/26 07:10:19;;;;;;;9.70;7.68;;;13.50;50.20;;;;;;4943985;28;20051;-90
2022/04/26 07:12:45;;;;;;;12.13;8.65;;;14.20;49.90;;;;;;4958334;28;20146;-88
2022/04/26 07:15:11;;;;;;;10.07;7.80;;;14.80;49.30;;;;;;4949435;28;20062;-92
2022/04/26 07:17:41;;;;;;;10.38;7.63;;;15.30;48.80;;;;;;4946848;28;20198;-92
2022/04/26 07:20:08;;;;;;;9.25;7.95;;;15.80;48.30;;;;;;4950734;29;20047;-92
2022/04/26 07:22:36;;;;;;;10.15;8.32;;;16.20;48.20;;;;;;4931528;28;20031;-82
2022/04/26 07:25:04;;;;;;;10.80;8.55;;;16.50;47.90;;;;;;4935904;29;20040;-87
2022/04/26 07:27:30;;;;;;;10.63;7.75;;;16.80;47.80;;;;;;4938255;28;20019;-87
2022/04/26 07:29:56;;;;;;;9.20;7.72;;;17.00;47.80;;;;;;4968185;28;20043;-83
2022/04/26 07:34:20;;;;;;;12.93;7.93;;;17.10;47.80;;;;;;4950062;29;20094;-85
2022/04/26 07:35:11;;;;;;;8.55;7.00;;;17.20;47.90;;;;;;4948772;29;20066;-86
2022/04/26 07:37:40;;;;;;;8.85;7.10;;;17.20;48.00;;;;;;4955382;28;20028;-82
2022/04/26 07:40:08;;;;;;;8.30;7.50;;;17.20;48.00;;;;;;4967048;28;20032;-84
2022/04/26 07:42:34;;;;;;;8.52;7.05;;;17.30;48.20;;;;;;4950190;29;20098;-84
2022/04/26 07:45:00;;;;;;;9.20;7.35;;;17.30;48.10;;;;;;4945519;29;20487;-84
2022/04/26 07:47:26;;;;;;;9.27;7.00;;;17.30;47.90;;;;;;4952776;28;20083;-84
2022/04/26 07:49:54;;;;;;;11.85;7.93;;;17.40;47.90;;;;;;4946021;28;20096;-83
2022/04/26 07:52:21;;;;;;;10.55;7.03;;;17.40;47.70;;;;;;4953113;28;20038;-87
2022/04/26 07:54:47;;;;;;;8.65;7.75;;;17.50;47.70;;;;;;4931225;29;20188;-84
2022/04/26 07:57:13;;;;;;;8.98;7.05;;;17.50;47.50;;;;;;4953283;28;20538;-83
2022/04/26 07:59:40;;;;;;;8.90;6.60;;;17.60;47.20;;;;;;4948515;28;20118;-84
2022/04/26 08:02:12;;;;;;;8.65;7.13;;;17.80;46.80;;;;;;4954009;28;20392;-84
2022/04/26 08:04:38;;;;;;;7.20;5.70;;;18.10;46.20;;;;;;4956743;29;20059;-88
2022/04/26 08:07:05;;;;;;;6.60;5.35;;;18.40;45.80;;;;;;4952185;29;20032;-87
2022/04/26 08:09:36;;;;;;;5.95;4.97;;;18.80;46.50;;;;;;4952866;28;20039;-83
2022/04/26 08:12:02;;;;;;;7.53;5.47;;;19.10;45.80;;;;;;4951133;28;20118;-88
2022/04/26 08:14:29;;;;;;;18.02;8.23;;;19.50;45.90;;;;;;4956501;28;20441;-86
2022/04/26 08:16:58;;;;;;;13.90;5.85;;;19.70;45.70;;;;;;4951120;28;20039;-78
2022/04/26 08:19:23;;;;;;;7.68;4.93;;;19.80;45.70;;;;;;4965793;28;20032;-82
2022/04/26 08:21:49;;;;;;;7.35;5.03;;;19.70;45.90;;;;;;4949669;29;20121;-83
2022/04/26 08:29:46;;;;;;;7.68;4.03;;;19.00;47.30;;;;;;4951076;28;20053;-82
2022/04/26 08:32:13;;;;;;;10.50;5.35;;;18.80;47.70;;;;;;4953883;29;20038;-82
2022/04/26 08:34:40;;;;;;;8.05;4.75;;;18.70;48.00;;;;;;4952479;28;20637;-84
2022/04/26 08:37:06;;;;;;;12.18;6.32;;;18.60;48.10;;;;;;4948679;28;20467;-83
2022/04/26 08:39:32;;;;;;;9.85;5.57;;;18.50;48.00;;;;;;4954354;28;20039;-83
2022/04/26 08:41:59;;;;;;;8.57;5.25;;;18.50;48.00;;;;;;4960505;28;20036;-86
2022/04/26 08:44:27;;;;;;;9.35;5.05;;;18.30;47.70;;;;;;4933182;29;20031;-86
2022/04/26 08:52:24;;;;;;;7.53;4.75;;;18.10;47.30;;;;;;4949735;28;20199;-89
2022/04/26 08:54:50;;;;;;;6.80;4.63;;;18.00;47.10;;;;;;4933372;29;20098;-79
2022/04/26 08:57:16;;;;;;;9.20;4.70;;;18.00;47.10;;;;;;4945202;29;20526;-89
2022/04/26 09:00:02;;;;;;;7.70;4.18;;;18.00;47.20;;;;;;4940015;28;20067;-89
2022/04/26 09:02:28;;;;;;;6.88;4.10;;;18.10;47.70;;;;;;4943616;29;20118;-89
2022/04/26 09:05:08;;;;;;;7.30;4.10;;;18.10;47.60;;;;;;4947829;29;20165;-91
2022/04/26 09:07:37;;;;;;;5.68;3.88;;;18.20;47.50;;;;;;4937245;28;20070;-89
2022/04/26 09:10:06;;;;;;;7.35;4.35;;;18.20;47.20;;;;;;4949992;28;20562;-86
2022/04/26 09:12:52;;;;;;;9.30;4.68;;;18.20;47.00;;;;;;4943685;28;20460;-90
2022/04/26 09:15:18;;;;;;;6.13;3.65;;;18.30;47.00;;;;;;4950893;29;20043;-89
2022/04/26 09:17:44;;;;;;;5.25;4.03;;;18.30;46.90;;;;;;4947583;28;20199;-87
2022/04/26 09:20:10;;;;;;;6.78;4.47;;;18.30;46.70;;;;;;4930384;29;20117;-90
2022/04/26 09:22:38;;;;;;;5.20;4.03;;;18.30;46.60;;;;;;4950390;28;20526;-86
2022/04/26 09:25:07;;;;;;;6.10;4.28;;;18.30;46.40;;;;;;4946268;28;20503;-91
2022/04/26 09:27:41;;;;;;;7.18;4.47;;;18.30;46.20;;;;;;4945539;28;20531;-88
2022/04/26 09:30:09;;;;;;;9.25;4.47;;;18.30;46.00;;;;;;4928855;29;20052;-89
2022/04/26 09:32:49;;;;;;;6.32;3.92;;;18.30;45.90;;;;;;4948652;29;20038;-87
2022/04/26 09:35:29;;;;;;;4.85;3.58;;;18.30;45.60;;;;;;4948561;29;20043;-85
2022/04/26 09:37:55;;;;;;;8.50;5.18;;;18.40;45.60;;;;;;4943740;28;20159;-91
2022/04/26 09:40:26;;;;;;;7.05;3.78;;;18.40;45.50;;;;;;4945332;28;20031;-88
2022/04/26 09:42:52;;;;;;;4.63;3.42;;;18.40;45.20;;;;;;4935367;29;20043;-90
2022/04/26 09:45:18;;;;;;;4.70;3.53;;;18.40;45.00;;;;;;4948213;29;20411;-80
2022/04/26 09:47:45;;;;;;;4.85;3.30;;;18.50;45.00;;;;;;4943787;28;20506;-87
2022/04/26 09:50:14;;;;;;;5.72;4.43;;;18.50;44.70;;;;;;4942164;28;20051;-90
2022/04/26 09:52:40;;;;;;;4.47;3.33;;;18.60;44.80;;;;;;4943500;28;20039;-89
2022/04/26 09:55:13;;;;;;;6.80;3.63;;;18.60;45.20;;;;;;4949769;28;20070;-83
2022/04/26 09:57:39;;;;;;;;;;;18.60;44.30;;;;;;4947889;28;20127;-87
2022/04/26 10:00:12;;;;;;;3.55;3.17;;;18.70;44.30;;;;;;4935831;29;19917;-86
2022/04/26 10:02:45;;;;;;;3.85;3.42;;;18.80;44.50;;;;;;4976829;28;20023;-86
2022/04/26 10:05:14;;;;;;;4.28;3.20;;;18.80;44.20;;;;;;4971948;28;20053;-87
2022/04/26 10:07:44;;;;;;;4.25;3.13;;;18.90;44.10;;;;;;4988049;28;20019;-79
2022/04/26 10:10:11;;;;;;;4.03;3.17;;;18.90;43.90;;;;;;4970172;28;20115;-79
2022/04/26 10:12:37;;;;;;;3.92;2.88;;;19.00;43.90;;;;;;4966627;28;20261;-79
2022/04/26 10:15:04;;;;;;;4.10;2.95;;;19.10;43.90;;;;;;4960469;29;20512;-81
2022/04/26 10:17:32;;;;;;;5.28;3.60;;;19.10;43.70;;;;;;4951734;28;20038;-80
2022/04/26 10:20:01;;;;;;;2.88;2.55;;;19.20;43.60;;;;;;4951175;28;20078;-84
2022/04/26 10:22:57;;;;;;;4.22;3.33;;;19.30;43.70;;;;;;4949005;28;20043;-84
2022/04/26 10:25:25;;;;;;;3.45;2.53;;;19.40;43.60;;;;;;4948406;28;20411;-84
2022/04/26 10:28:23;;;;;;;3.28;2.92;;;19.50;43.70;;;;;;4949154;28;20038;-84
2022/04/26 10:30:56;;;;;;;3.10;2.63;;;19.60;43.40;;;;;;4949186;28;20062;-82
2022/04/26 10:33:40;;;;;;;3.20;2.85;;;19.60;43.40;;;;;;4931682;29;20035;-80
2022/04/26 10:36:28;;;;;;;3.17;2.63;;;19.80;43.60;;;;;;4949579;28;20078;-85
2022/04/26 10:39:06;;;;;;;4.82;2.63;;;19.80;43.40;;;;;;4939764;28;20030;-87
2022/04/26 10:41:34;;;;;;;3.17;2.75;;;20.00;43.70;;;;;;4937338;29;20454;-87
2022/04/26 10:44:21;;;;;;;3.05;2.47;;;20.00;43.60;;;;;;4945714;29;20147;-88
2022/04/26 10:47:01;;;;;;;2.70;2.33;;;20.10;43.30;;;;;;4961074;28;20094;-87
2022/04/26 10:49:42;;;;;;;4.55;2.25;;;20.20;43.40;;;;;;4946337;28;20041;-86
2022/04/26 10:52:14;;;;;;;3.40;2.50;;;20.20;43.10;;;;;;4943499;28;20036;-84
2022/04/26 10:54:46;;;;;;;2.88;2.28;;;20.30;43.30;;;;;;4936956;28;20058;-85
2022/04/26 10:57:20;;;;;;;3.67;2.40;;;20.40;43.40;;;;;;4950384;28;20039;-81
2022/04/26 11:00:07;;;;;;;4.07;2.20;;;20.50;43.50;;;;;;4943327;28;20075;-93
2022/04/26 11:02:36;;;;;;;3.03;2.20;;;20.60;43.50;;;;;;4942671;28;20031;-85
2022/04/26 11:05:09;;;;;;;3.65;2.05;;;20.70;43.60;;;;;;4955247;28;20380;-87
2022/04/26 11:07:35;;;;;;;;;;;20.80;43.60;;;;;;4946589;29;20387;-89
2022/04/26 11:10:04;;;;;;;5.03;3.22;;;20.80;43.60;;;;;;4948428;29;19922;-81
2022/04/26 11:12:37;;;;;;;3.17;2.58;;;20.90;43.70;;;;;;4936314;29;20035;-84
2022/04/26 11:15:08;;;;;;;3.08;2.35;;;21.00;43.50;;;;;;4948319;29;20531;-83
2022/04/26 11:17:34;;;;;;;3.42;2.53;;;21.10;43.50;;;;;;4947322;29;20039;-83
2022/04/26 11:20:08;;;;;;;5.63;2.70;;;21.10;43.30;;;;;;4952991;28;20479;-85
2022/04/26 11:22:49;;;;;;;4.18;2.45;;;21.20;43.20;;;;;;4949103;28;20058;-83
2022/04/26 11:28:06;;;;;;;5.22;2.58;;;21.30;43.00;;;;;;4951045;28;20159;-87
2022/04/26 11:30:55;;;;;;;3.97;2.75;;;21.40;42.90;;;;;;4945391;28;20050;-86
2022/04/26 11:33:23;;;;;;;2.80;2.25;;;21.50;42.80;;;;;;4946513;28;20554;-79
2022/04/26 11:35:59;;;;;;;2.70;2.13;;;21.60;42.90;;;;;;4930020;29;20495;-82
2022/04/26 11:38:25;;;;;;;2.42;2.20;;;21.60;42.70;;;;;;4951403;28;20581;-84
2022/04/26 11:40:55;;;;;;;3.35;2.25;;;21.70;42.80;;;;;;4958439;28;20035;-84
2022/04/26 11:43:22;;;;;;;3.25;2.28;;;21.80;42.70;;;;;;4943974;29;20172;-85
2022/04/26 11:45:54;;;;;;;3.35;2.33;;;21.90;42.80;;;;;;4945368;29;20016;-84
2022/04/26 11:48:25;;;;;;;2.20;1.98;;;22.00;42.80;;;;;;4941853;28;20114;-85
2022/04/26 11:50:54;;;;;;;3.55;2.50;;;22.00;42.80;;;;;;4943336;28;20463;-85
2022/04/26 11:53:22;;;;;;;2.30;2.10;;;22.10;42.80;;;;;;4952497;28;20399;-85
2022/04/26 11:55:52;;;;;;;2.25;2.03;;;22.20;42.80;;;;;;4952273;28;20488;-83
2022/04/26 11:58:20;;;;;;;2.80;2.30;;;22.30;42.90;;;;;;4950788;28;20043;-83
2022/04/26 12:00:52;;;;;;;2.67;2.40;;;22.30;42.80;;;;;;4954364;28;20054;-82
2022/04/26 12:03:20;;;;;;;3.05;2.22;;;22.40;42.80;;;;;;4951146;28;20062;-82
2022/04/26 12:06:00;;;;;;;2.53;1.90;;;22.50;42.90;;;;;;4957657;28;20546;-83
2022/04/26 12:08:28;;;;;;;2.45;2.03;;;22.60;42.80;;;;;;4949547;28;20043;-86
2022/04/26 12:10:55;;;;;;;3.13;2.00;;;22.70;42.80;;;;;;4950635;28;20046;-86
2022/04/26 12:13:31;;;;;;;3.72;2.00;;;22.70;42.70;;;;;;4950814;28;20071;-85
2022/04/26 12:16:20;;;;;;;3.70;1.77;;;22.90;42.80;;;;;;4940023;29;20122;-86
2022/04/26 12:19:07;;;;;;;2.90;2.42;;;23.00;42.60;;;;;;4948902;28;20379;-86
2022/04/26 12:21:56;;;;;;;2.63;2.38;;;23.10;42.70;;;;;;4950451;28;20043;-84
2022/04/26 12:24:29;;;;;;;3.30;2.17;;;23.30;42.60;;;;;;4950856;28;20106;-85
2022/04/26 12:27:04;;;;;;;2.90;2.58;;;23.50;42.90;;;;;;4951274;28;20110;-85
2022/04/26 12:29:31;;;;;;;3.80;2.50;;;23.60;42.70;;;;;;4951400;28;20424;-85
2022/04/26 12:31:58;;;;;;;2.88;2.28;;;23.80;42.90;;;;;;4949357;28;20094;-85
2022/04/26 12:34:31;;;;;;;3.10;2.10;;;23.90;42.80;;;;;;4950305;28;20356;-85
2022/04/26 12:37:03;;;;;;;2.95;2.10;;;24.00;42.60;;;;;;4949491;28;20379;-85
2022/04/26 12:39:43;;;;;;;2.23;2.03;;;24.20;42.70;;;;;;4950595;28;20510;-84
2022/04/26 12:42:17;;;;;;;2.65;1.88;;;24.40;42.70;;;;;;4949472;29;20451;-85
2022/04/26 12:44:55;;;;;;;2.03;1.63;;;24.50;42.70;;;;;;4950604;28;20035;-84
2022/04/26 12:50:29;;;;;;;2.17;1.95;;;24.90;42.90;;;;;;4943452;28;20269;-81
2022/04/26 12:52:56;;;;;;;2.83;2.10;;;25.10;42.80;;;;;;4948610;28;20067;-83
2022/04/26 12:55:29;;;;;;;1.75;1.65;;;25.20;42.80;;;;;;4948411;28;20035;-84
2022/04/26 12:57:57;;;;;;;1.98;1.75;;;25.40;42.50;;;;;;4965099;28;20038;-83
2022/04/26 13:00:24;;;;;;;3.58;1.95;;;25.50;42.30;;;;;;4924478;29;20035;-83
2022/04/26 13:02:52;;;;;;;1.75;1.65;;;25.80;42.70;;;;;;4949207;28;20031;-83
2022/04/26 13:05:19;;;;;;;1.88;1.70;;;26.00;41.70;;;;;;4949536;28;20035;-82
2022/04/26 13:07:46;;;;;;;2.92;2.05;;;26.30;41.50;;;;;;4944330;28;20035;-82
2022/04/26 13:10:13;;;;;;;1.60;1.50;;;26.50;41.10;;;;;;4944787;29;20047;-83
2022/04/26 13:12:39;;;;;;;1.83;1.60;;;26.70;40.80;;;;;;4939737;29;20035;-84
2022/04/26 13:15:08;;;;;;;2.03;1.83;;;26.70;40.60;;;;;;4947600;28;20066;-84
2022/04/26 13:17:37;;;;;;;2.22;1.60;;;26.60;40.40;;;;;;4942986;28;20032;-83
2022/04/26 13:20:08;;;;;;;1.73;1.60;;;26.40;40.20;;;;;;4943410;29;20079;-84
2022/04/26 13:22:35;;;;;;;2.70;1.88;;;26.20;40.40;;;;;;4948435;28;20335;-85
2022/04/26 13:25:04;;;;;;;2.17;1.88;;;25.90;40.50;;;;;;4942188;29;20205;-81
2022/04/26 13:27:31;;;;;;;2.60;1.85;;;25.80;40.50;;;;;;4949126;28;20066;-83
2022/04/26 13:29:58;;;;;;;1.92;1.75;;;25.80;40.60;;;;;;4949648;28;20097;-84
2022/04/26 13:32:24;;;;;;;1.30;1.20;;;25.60;40.20;;;;;;4948079;29;20346;-85
2022/04/26 13:34:52;;;;;;;1.88;1.60;;;25.40;40.70;;;;;;4940205;29;20031;-86
2022/04/26 13:37:19;;;;;;;2.45;1.55;;;25.20;40.00;;;;;;4947444;28;20035;-84
2022/04/26 13:39:45;;;;;;;1.83;1.73;;;25.00;40.60;;;;;;4944699;28;20164;-81
2022/04/26 13:42:15;;;;;;;5.10;1.88;;;24.90;40.00;;;;;;4965044;29;20042;-85
2022/04/26 13:44:41;;;;;;;1.92;1.58;;;24.70;39.70;;;;;;4971351;28;20429;-85
2022/04/26 13:47:08;;;;;;;2.00;1.73;;;24.80;40.00;;;;;;4967308;28;20141;-84
2022/04/26 13:49:39;;;;;;;8.65;2.88;;;24.90;40.00;;;;;;4965757;28;20008;-81
2022/04/26 13:52:08;;;;;;;3.45;2.00;;;25.00;39.80;;;;;;4968625;29;20178;-81
2022/04/26 13:54:34;;;;;;;2.03;1.45;;;25.20;39.50;;;;;;4957355;28;20028;-85
2022/04/26 13:57:00;;;;;;;3.58;1.55;;;25.50;39.40;;;;;;4966985;28;20083;-88
2022/04/26 13:59:26;;;;;;;1.83;1.63;;;26.10;39.20;;;;;;4972026;28;20027;-80
2022/04/26 14:01:52;;;;;;;3.03;1.85;;;26.60;38.80;;;;;;4983805;23;20047;-85
2022/04/26 14:04:21;;;;;;;2.05;1.52;;;27.20;38.50;;;;;;4980764;28;20117;-85
2022/04/26 14:06:47;;;;;;;1.20;1.10;;;27.70;38.10;;;;;;4962497;28;20172;-89
2022/04/26 14:09:14;;;;;;;2.10;1.90;;;28.00;37.70;;;;;;4955679;28;20024;-80
2022/04/26 14:11:40;;;;;;;2.60;1.60;;;28.00;37.50;;;;;;4954381;28;20047;-83
2022/04/26 14:22:21;;;;;;;1.25;1.15;;;27.20;37.50;;;;;;4963419;28;20110;-79
2022/04/26 14:24:52;;;;;;;2.20;1.52;;;27.40;37.50;;;;;;4985987;28;20117;-78
2022/04/26 14:27:20;;;;;;;1.58;1.45;;;27.70;37.40;;;;;;4962105;28;20034;-80
2022/04/26 14:29:46;;;;;;;2.30;1.50;;;28.00;37.20;;;;;;4964891;28;20129;-78
2022/04/26 14:32:12;;;;;;;1.50;1.40;;;28.00;36.90;;;;;;4968765;28;20369;-76
2022/04/26 14:34:39;;;;;;;1.63;1.52;;;28.00;36.80;;;;;;4964545;28;20023;-85
2022/04/26 14:37:05;;;;;;;1.67;1.58;;;27.80;36.70;;;;;;4960178;28;20042;-83
2022/04/26 14:39:31;;;;;;;3.35;1.70;;;27.60;36.80;;;;;;4960724;28;20287;-82
2022/04/26 14:41:57;;;;;;;1.83;1.60;;;27.30;36.80;;;;;;4964205;28;20097;-84
2022/04/26 14:44:23;;;;;;;1.70;1.60;;;27.20;36.90;;;;;;4972229;28;20030;-84
2022/04/26 14:46:49;;;;;;;1.67;1.27;;;27.10;37.00;;;;;;4948328;28;20042;-81
2022/04/26 14:49:15;;;;;;;1.27;1.17;;;27.30;37.10;;;;;;4962812;28;20065;-79
2022/04/26 14:51:41;;;;;;;1.98;1.30;;;27.60;36.90;;;;;;4968909;28;20051;-79
2022/04/26 14:54:07;;;;;;;1.70;1.60;;;27.90;36.70;;;;;;4963642;28;20034;-84
2022/04/26 14:56:33;;;;;;;1.33;1.23;;;28.10;36.40;;;;;;4966085;28;20630;-81
2022/04/26 14:59:01;;;;;;;1.50;1.40;;;28.10;36.20;;;;;;4948560;28;20027;-84
2022/04/26 15:01:29;;;;;;;1.65;1.55;;;28.00;36.00;;;;;;4959320;28;20465;-86
2022/04/26 15:03:58;;;;;;;1.70;1.60;;;27.90;35.90;;;;;;4958211;28;20059;-81
2022/04/26 15:06:26;;;;;;;3.40;1.45;;;27.80;35.90;;;;;;4969671;28;20133;-83
2022/04/26 15:11:36;;;;;;;1.70;1.58;;;27.50;35.70;;;;;;4967793;28;20047;-84
2022/04/26 15:16:49;;;;;;;1.70;1.60;;;27.20;35.80;;;;;;4974694;28;20035;-84
2022/04/26 15:19:15;;;;;;;1.60;1.48;;;27.00;35.80;;;;;;4958942;28;20093;-88
2022/04/26 15:21:43;;;;;;;2.42;1.50;;;26.90;35.80;;;;;;4971036;28;20125;-84
2022/04/26 15:24:10;;;;;;;1.70;1.48;;;26.80;35.80;;;;;;4973993;28;20030;-83
2022/04/26 15:26:36;;;;;;;3.08;1.40;;;26.70;35.80;;;;;;4963456;28;20371;-79
2022/04/26 15:29:06;;;;;;;1.75;1.58;;;26.70;35.80;;;;;;4972934;28;20034;-81
2022/04/26 15:31:34;;;;;;;2.08;1.20;;;26.50;35.70;;;;;;4968509;28;20039;-82
2022/04/26 15:34:00;;;;;;;2.72;1.50;;;26.50;35.90;;;;;;4971365;28;20045;-91
2022/04/26 15:36:26;;;;;;;2.83;1.90;;;26.30;35.90;;;;;;4973469;28;20038;-85
2022/04/26 15:38:56;;;;;;;2.63;1.38;;;26.20;36.00;;;;;;4963423;28;20045;-83
2022/04/26 15:41:24;;;;;;;2.60;1.42;;;26.10;36.00;;;;;;4965621;28;20059;-82
2022/04/26 15:43:50;;;;;;;1.77;1.67;;;26.00;36.10;;;;;;4972748;28;20038;-83
2022/04/26 15:46:16;;;;;;;1.60;1.33;;;25.90;36.20;;;;;;4969123;28;20041;-83
2022/04/26 15:48:48;;;;;;;1.90;1.40;;;25.80;36.20;;;;;;4965946;28;20121;-84
2022/04/26 15:51:18;;;;;;;2.58;1.63;;;25.80;36.30;;;;;;4977649;28;20077;-85
2022/04/26 15:53:48;;;;;;;1.48;1.38;;;25.80;36.40;;;;;;4980514;28;20456;-83
2022/04/26 15:56:14;;;;;;;1.98;1.77;;;25.70;36.40;;;;;;4957268;28;20147;-79
2022/04/26 15:58:41;;;;;;;2.05;1.85;;;25.60;36.30;;;;;;4962790;28;20437;-80
2022/04/26 16:01:07;;;;;;;2.15;1.60;;;25.60;36.40;;;;;;4976122;28;20102;-83
2022/04/26 16:03:33;;;;;;;2.72;1.67;;;25.50;36.40;;;;;;4968138;28;20069;-83
2022/04/26 16:05:58;;;;;;;3.13;1.70;;;25.40;37.00;;;;;;4977863;28;20038;-83
2022/04/26 16:08:24;;;;;;;2.58;2.00;;;25.40;36.50;;;;;;4964512;28;20615;-81
2022/04/26 16:21:50;;;;;;;1.85;1.75;;;26.00;36.80;;;;;;4966634;28;20030;-82
2022/04/26 16:24:17;;;;;;;1.50;1.40;;;26.20;36.60;;;;;;4965326;28;20057;-84
2022/04/26 16:26:43;;;;;;;2.80;1.80;;;26.30;36.50;;;;;;4949491;28;20023;-85
2022/04/26 16:29:10;;;;;;;3.08;1.77;;;26.30;36.50;;;;;;4968259;28;20026;-85
2022/04/26 16:31:38;;;;;;;1.67;1.58;;;26.30;36.40;;;;;;4969537;28;20556;-79
2022/04/26 16:34:05;;;;;;;1.77;1.50;;;26.20;36.40;;;;;;4970396;28;20034;-78
2022/04/26 16:36:31;;;;;;;4.40;2.15;;;26.10;36.50;;;;;;4960286;28;20037;-79
2022/04/26 16:38:58;;;;;;;2.80;2.15;;;25.90;36.40;;;;;;4952837;28;20046;-80
2022/04/26 16:41:25;;;;;;;1.77;1.67;;;25.80;36.50;;;;;;4971457;28;20524;-78
2022/04/26 16:43:50;;;;;;;2.33;2.13;;;25.60;36.60;;;;;;4964301;28;20107;-83
2022/04/26 16:46:19;;;;;;;2.13;1.60;;;25.50;36.60;;;;;;4965959;28;20050;-83
2022/04/26 16:48:45;;;;;;;4.03;1.75;;;25.40;36.70;;;;;;4965959;28;20042;-82
2022/04/26 16:51:14;;;;;;;1.77;1.60;;;25.30;36.90;;;;;;4973991;28;20046;-80
2022/04/26 16:53:42;;;;;;;5.35;2.28;;;25.20;37.00;;;;;;4982988;28;20500;-81
2022/04/26 16:56:08;;;;;;;4.45;2.90;;;25.10;37.40;;;;;;4968884;28;20039;-77
2022/04/26 16:58:34;;;;;;;4.88;3.00;;;25.00;37.50;;;;;;4964156;28;20492;-79
2022/04/26 17:01:01;;;;;;;5.93;2.85;;;24.80;37.10;;;;;;4965169;28;20114;-80
2022/04/26 17:03:27;;;;;;;3.60;2.63;;;24.70;37.10;;;;;;4964226;28;20074;-79
2022/04/26 17:05:54;;;;;;;4.65;2.30;;;24.50;36.90;;;;;;4966232;28;20023;-78
2022/04/26 17:08:20;;;;;;;8.65;2.72;;;24.50;37.00;;;;;;4962491;28;20121;-84
2022/04/26 17:10:47;;;;;;;4.65;2.60;;;24.40;37.00;;;;;;4962609;28;20039;-77
2022/04/26 17:13:14;;;;;;;4.07;1.80;;;24.30;36.90;;;;;;4969868;28;20405;-85
2022/04/26 17:15:41;;;;;;;3.40;2.53;;;24.20;36.80;;;;;;4955515;28;20058;-82
2022/04/26 17:18:07;;;;;;;4.53;2.40;;;24.20;36.70;;;;;;4960291;28;20038;-80